Time;durP1;ratioP1;P1;durP2;ratioP2;P2;SDS_P1;SDS_P2;PMS_P1;PMS_P2;Temp;Humidity;BMP_temperature;BMP_pressure;BME280_temperature;BME280_humidity;BME280_pressure;Samples;Min_cycle;Max_cycle;Signal;HPM_P1;HPM_P2
2023/06/24 00:02:14;;;;;;;2.08;1.45;;;21.90;99.90;;;;;;5072881;28;20095;-46
2023/06/24 00:04:39;;;;;;;3.15;1.70;;;21.90;99.90;;;;;;5084553;28;20030;-46
2023/06/24 00:07:06;;;;;;;6.55;1.50;;;21.70;99.90;;;;;;5075282;28;20024;-47
2023/06/24 00:09:32;;;;;;;2.67;2.05;;;21.80;99.90;;;;;;5068642;28;20113;-47
2023/06/24 00:12:01;;;;;;;4.65;1.27;;;21.80;99.90;;;;;;5072181;28;20060;-47
2023/06/24 00:14:27;;;;;;;3.17;1.50;;;21.60;99.90;;;;;;5084544;28;20034;-46
2023/06/24 00:16:54;;;;;;;2.53;1.40;;;21.80;99.90;;;;;;5076244;28;20017;-46
2023/06/24 00:19:21;;;;;;;5.03;1.92;;;21.90;99.90;;;;;;5071101;28;20017;-47
2023/06/24 00:21:48;;;;;;;5.40;1.40;;;21.80;99.90;;;;;;5083065;28;20031;-47
2023/06/24 00:24:14;;;;;;;2.33;1.40;;;21.80;99.90;;;;;;5078571;28;20027;-47
2023/06/24 00:26:40;;;;;;;3.63;1.65;;;21.90;99.90;;;;;;5040590;28;20385;-47
2023/06/24 00:29:05;;;;;;;3.58;2.17;;;21.90;99.90;;;;;;5075105;28;20081;-46
2023/06/24 00:31:31;;;;;;;3.60;1.48;;;21.90;99.90;;;;;;5073041;28;20119;-47
2023/06/24 00:34:04;;;;;;;2.25;1.50;;;21.90;99.90;;;;;;5050908;28;20055;-48
2023/06/24 00:36:31;;;;;;;2.95;1.77;;;21.70;99.90;;;;;;5071071;28;20024;-47
2023/06/24 00:39:00;;;;;;;5.57;1.98;;;21.50;99.90;;;;;;5082404;28;20054;-47
2023/06/24 00:41:27;;;;;;;3.03;1.77;;;21.50;99.90;;;;;;5038959;28;20049;-47
2023/06/24 00:43:52;;;;;;;4.18;1.88;;;21.50;99.90;;;;;;5059228;28;20025;-46
2023/06/24 00:46:19;;;;;;;3.03;1.60;;;21.70;99.90;;;;;;5059897;28;20087;-46
2023/06/24 00:48:45;;;;;;;2.10;1.50;;;21.90;99.90;;;;;;5067637;28;20035;-47
2023/06/24 00:51:11;;;;;;;3.22;2.35;;;21.80;99.90;;;;;;5055517;28;20032;-47
2023/06/24 00:53:38;;;;;;;4.32;1.50;;;21.70;99.90;;;;;;5057494;28;20049;-46
2023/06/24 00:56:04;;;;;;;3.63;1.48;;;21.60;99.90;;;;;;5064154;28;20056;-47
2023/06/24 00:58:32;;;;;;;4.25;1.80;;;21.50;99.90;;;;;;5062235;28;20167;-46
2023/06/24 01:00:58;;;;;;;2.83;1.73;;;21.70;99.90;;;;;;5062700;28;20032;-47
2023/06/24 01:03:27;;;;;;;3.28;1.63;;;21.90;99.90;;;;;;5057063;28;20139;-46
2023/06/24 01:05:56;;;;;;;2.92;1.50;;;22.00;99.90;;;;;;5048546;28;20495;-47
2023/06/24 01:08:24;;;;;;;3.60;1.85;;;22.10;99.90;;;;;;5051623;28;20017;-46
2023/06/24 01:10:50;;;;;;;4.22;1.92;;;22.20;99.90;;;;;;5055554;28;20041;-47
2023/06/24 01:13:17;;;;;;;3.97;2.17;;;;;;;;;;5039697;28;20473;-46
2023/06/24 01:15:43;;;;;;;3.15;1.58;;;22.30;99.90;;;;;;5059643;28;20029;-46
2023/06/24 01:18:24;;;;;;;2.22;1.52;;;22.30;99.90;;;;;;5063361;28;20081;-46
2023/06/24 01:21:03;;;;;;;4.13;1.50;;;22.30;99.90;;;;;;5065049;28;20690;-46
2023/06/24 01:23:38;;;;;;;3.03;1.77;;;22.30;99.90;;;;;;5071219;28;20027;-46
2023/06/24 01:26:25;;;;;;;4.22;1.90;;;22.30;99.90;;;;;;5073731;28;20027;-46
2023/06/24 01:29:27;;;;;;;3.88;1.88;;;22.20;99.90;;;;;;5072901;28;20025;-46
2023/06/24 01:32:28;;;;;;;2.63;1.60;;;22.10;99.90;;;;;;5059236;28;20068;-47
2023/06/24 01:35:00;;;;;;;5.05;2.50;;;22.00;99.90;;;;;;5074160;28;20029;-47
2023/06/24 01:37:26;;;;;;;;;;;22.00;99.90;;;;;;5072862;28;20102;-46
2023/06/24 01:40:10;;;;;;;2.03;1.80;;;22.00;99.90;;;;;;5069773;28;20374;-47
2023/06/24 01:42:41;;;;;;;4.93;1.83;;;22.00;99.90;;;;;;5072988;28;20036;-47
2023/06/24 01:45:28;;;;;;;3.88;2.47;;;21.90;99.90;;;;;;5073397;28;20031;-47
2023/06/24 01:48:34;;;;;;;3.47;2.15;;;21.80;99.90;;;;;;5032332;28;20491;-46
2023/06/24 01:51:03;;;;;;;4.53;2.13;;;21.80;99.90;;;;;;5067076;28;20032;-46
2023/06/24 01:53:32;;;;;;;6.13;2.25;;;21.70;99.90;;;;;;5072875;28;20089;-46
2023/06/24 01:56:01;;;;;;;4.68;2.33;;;21.60;99.90;;;;;;5077990;28;20028;-47
2023/06/24 01:58:28;;;;;;;3.63;2.10;;;21.70;99.90;;;;;;5071129;28;20107;-47
2023/06/24 02:00:56;;;;;;;3.80;1.80;;;21.80;99.90;;;;;;5053406;28;20037;-47
2023/06/24 02:03:23;;;;;;;3.67;1.80;;;22.00;99.90;;;;;;5077943;28;20035;-46
2023/06/24 02:05:50;;;;;;;4.45;1.98;;;22.30;99.90;;;;;;5079765;28;20028;-47
2023/06/24 02:08:17;;;;;;;3.35;2.00;;;22.40;99.90;;;;;;5056843;28;20422;-47
2023/06/24 02:10:44;;;;;;;4.85;2.20;;;22.40;99.90;;;;;;5076774;28;20048;-46
2023/06/24 02:13:13;;;;;;;7.72;2.05;;;22.30;99.90;;;;;;5073361;28;20074;-47
2023/06/24 02:15:41;;;;;;;2.95;1.75;;;22.20;99.90;;;;;;5071599;28;20035;-47
2023/06/24 02:18:09;;;;;;;4.80;2.33;;;22.10;99.90;;;;;;5071927;28;20083;-46
2023/06/24 02:20:36;;;;;;;3.88;2.10;;;22.10;99.90;;;;;;5067210;28;20032;-46
2023/06/24 02:23:04;;;;;;;4.93;2.00;;;22.10;99.90;;;;;;5056809;28;20072;-47
2023/06/24 02:25:31;;;;;;;3.45;2.15;;;22.00;99.90;;;;;;5066473;28;20486;-47
2023/06/24 02:27:58;;;;;;;3.83;2.00;;;22.00;99.90;;;;;;5063116;28;20025;-47
2023/06/24 02:30:24;;;;;;;3.33;2.25;;;22.00;99.90;;;;;;5040334;28;20460;-47
2023/06/24 02:32:50;;;;;;;4.85;2.22;;;22.10;99.90;;;;;;5078261;28;20471;-46
2023/06/24 02:35:16;;;;;;;4.80;2.20;;;22.10;99.90;;;;;;5073934;28;20032;-47
2023/06/24 02:37:42;;;;;;;4.85;2.05;;;22.10;99.90;;;;;;5070585;28;21023;-47
2023/06/24 02:40:09;;;;;;;4.47;2.17;;;22.00;99.90;;;;;;5064249;28;20139;-46
2023/06/24 02:42:35;;;;;;;3.83;2.20;;;21.90;99.90;;;;;;5075555;28;20544;-47
2023/06/24 02:45:03;;;;;;;5.40;2.40;;;22.00;99.90;;;;;;5075259;28;20032;-47
2023/06/24 02:47:29;;;;;;;3.63;2.05;;;22.00;99.90;;;;;;5039166;28;20071;-47
2023/06/24 02:49:57;;;;;;;3.00;2.13;;;22.10;99.90;;;;;;5075667;28;20094;-46
2023/06/24 02:52:24;;;;;;;3.72;2.30;;;22.00;99.90;;;;;;5072569;28;20036;-47
2023/06/24 02:54:50;;;;;;;3.40;2.00;;;22.00;99.90;;;;;;5069099;28;20123;-47
2023/06/24 02:57:16;;;;;;;4.55;2.50;;;21.90;99.90;;;;;;5068779;28;20057;-47
2023/06/24 02:59:42;;;;;;;4.45;2.30;;;21.90;99.90;;;;;;5057528;28;20047;-47
2023/06/24 03:02:08;;;;;;;3.25;2.13;;;21.80;99.90;;;;;;5066620;28;20360;-47
2023/06/24 03:04:35;;;;;;;4.35;2.17;;;21.80;99.90;;;;;;5068746;28;20488;-47
2023/06/24 03:07:02;;;;;;;4.15;2.30;;;21.80;99.90;;;;;;5072436;28;20146;-47
2023/06/24 03:09:29;;;;;;;4.47;2.90;;;21.80;99.90;;;;;;5069561;28;20056;-47
2023/06/24 03:11:55;;;;;;;4.35;2.38;;;21.80;99.90;;;;;;5070770;28;20055;-47
2023/06/24 03:14:21;;;;;;;3.38;2.17;;;21.70;99.90;;;;;;5075925;28;20464;-47
2023/06/24 03:16:46;;;;;;;5.18;2.38;;;21.70;99.90;;;;;;5047274;28;20044;-46
2023/06/24 03:19:12;;;;;;;3.22;2.38;;;21.50;99.90;;;;;;5081943;28;20034;-46
2023/06/24 03:21:38;;;;;;;3.80;2.40;;;21.40;99.90;;;;;;5067508;28;20036;-46
2023/06/24 03:24:04;;;;;;;3.88;2.45;;;21.40;99.90;;;;;;5071755;28;20032;-47
2023/06/24 03:26:38;;;;;;;3.50;2.20;;;21.30;99.90;;;;;;5062299;28;20066;-47
2023/06/24 03:29:04;;;;;;;4.45;2.58;;;21.30;99.90;;;;;;5084345;28;20030;-46
2023/06/24 03:31:30;;;;;;;4.43;2.40;;;;;;;;;;5053596;28;20118;-47
2023/06/24 03:33:56;;;;;;;7.55;2.58;;;;;;;;;;5053787;28;20032;-46
2023/06/24 03:36:23;;;;;;;4.15;2.65;;;;;;;;;;5040059;28;20123;-47
2023/06/24 03:38:49;;;;;;;6.32;2.53;;;20.80;99.90;;;;;;5058000;28;20044;-46
2023/06/24 03:41:15;;;;;;;4.20;2.60;;;20.70;99.90;;;;;;5052269;28;20049;-46
2023/06/24 03:43:41;;;;;;;3.53;2.40;;;20.80;99.90;;;;;;5053915;28;20125;-46
2023/06/24 03:46:07;;;;;;;4.93;2.78;;;20.80;99.90;;;;;;5039284;28;20048;-46
2023/06/24 03:48:33;;;;;;;4.20;2.50;;;20.90;99.90;;;;;;5070190;28;20020;-47
2023/06/24 03:50:59;;;;;;;2.92;2.10;;;21.00;99.90;;;;;;5053272;28;20060;-47
2023/06/24 03:53:25;;;;;;;5.78;3.22;;;21.00;99.90;;;;;;5065334;28;20027;-46
2023/06/24 03:55:50;;;;;;;5.13;2.50;;;21.00;99.90;;;;;;5063286;28;20423;-46
2023/06/24 03:58:16;;;;;;;4.07;2.20;;;21.00;99.90;;;;;;5036412;28;20028;-46
2023/06/24 04:00:43;;;;;;;8.70;3.20;;;20.90;99.90;;;;;;5059522;28;20516;-46
2023/06/24 04:03:10;;;;;;;5.70;3.17;;;21.00;99.90;;;;;;5044174;28;20036;-47
2023/06/24 04:05:36;;;;;;;4.00;2.67;;;20.60;99.90;;;;;;5078897;28;20110;-47
2023/06/24 04:08:05;;;;;;;5.63;2.28;;;20.70;99.90;;;;;;5077333;28;20059;-47
2023/06/24 04:10:31;;;;;;;5.78;2.55;;;20.70;99.90;;;;;;5053453;28;20496;-46
2023/06/24 04:12:56;;;;;;;7.78;1.90;;;20.80;99.90;;;;;;5078156;28;20032;-48
2023/06/24 04:15:22;;;;;;;3.03;1.98;;;20.70;99.90;;;;;;5079433;28;20052;-47
2023/06/24 04:17:48;;;;;;;4.82;3.20;;;20.80;99.90;;;;;;5067819;28;20033;-47
2023/06/24 04:20:14;;;;;;;4.28;2.40;;;20.70;99.90;;;;;;5043817;28;20035;-46
2023/06/24 04:22:41;;;;;;;5.88;2.88;;;20.70;99.90;;;;;;5061865;28;20044;-47
2023/06/24 04:25:07;;;;;;;4.45;2.45;;;20.80;99.90;;;;;;5077223;28;20033;-47
2023/06/24 04:27:33;;;;;;;3.35;1.92;;;20.80;99.90;;;;;;5073805;28;20092;-46
2023/06/24 04:30:00;;;;;;;5.43;2.53;;;20.70;99.90;;;;;;5035411;28;20037;-47
2023/06/24 04:32:26;;;;;;;6.22;2.60;;;20.70;99.90;;;;;;5072495;28;20086;-47
2023/06/24 04:34:51;;;;;;;6.00;3.03;;;20.80;99.90;;;;;;5068584;28;20422;-47
2023/06/24 04:37:18;;;;;;;4.40;2.88;;;20.60;99.90;;;;;;5079265;28;20036;-46
2023/06/24 04:39:44;;;;;;;4.05;2.30;;;20.00;99.90;;;;;;5080820;28;20039;-47
2023/06/24 04:42:10;;;;;;;5.50;2.90;;;20.70;99.90;;;;;;5067634;28;20024;-47
2023/06/24 04:44:36;;;;;;;3.50;2.40;;;20.70;99.90;;;;;;5074592;28;20077;-46
2023/06/24 04:47:03;;;;;;;4.40;2.78;;;20.80;99.90;;;;;;5070688;28;20115;-47
2023/06/24 04:49:28;;;;;;;3.88;2.55;;;20.70;99.90;;;;;;5071218;28;20064;-47
2023/06/24 04:51:54;;;;;;;3.22;2.20;;;20.70;99.90;;;;;;5045223;28;20060;-47
2023/06/24 04:54:20;;;;;;;4.22;2.53;;;20.70;99.90;;;;;;5088854;28;20024;-46
2023/06/24 04:56:48;;;;;;;5.25;2.58;;;20.80;99.90;;;;;;5069923;28;20025;-46
2023/06/24 04:59:14;;;;;;;3.30;2.20;;;20.80;99.90;;;;;;5075616;28;20036;-46
2023/06/24 05:01:39;;;;;;;4.32;2.65;;;20.90;99.90;;;;;;5077460;28;20034;-46
2023/06/24 05:04:05;;;;;;;6.47;3.05;;;21.10;99.90;;;;;;5069230;28;20044;-47
2023/06/24 05:06:31;;;;;;;6.43;2.42;;;21.00;99.90;;;;;;5084220;28;20077;-47
2023/06/24 05:08:57;;;;;;;2.88;1.90;;;21.10;99.90;;;;;;5052841;28;20108;-47
2023/06/24 05:11:22;;;;;;;3.40;1.98;;;21.10;99.90;;;;;;5073302;28;20471;-46
2023/06/24 05:13:48;;;;;;;3.45;2.58;;;21.00;99.90;;;;;;5058265;28;20071;-47
2023/06/24 05:16:14;;;;;;;4.28;2.60;;;21.10;99.90;;;;;;5043762;28;20079;-46
2023/06/24 05:18:40;;;;;;;3.80;2.33;;;21.20;99.90;;;;;;5072907;28;20024;-46
2023/06/24 05:21:05;;;;;;;4.60;2.75;;;21.20;99.90;;;;;;5056576;28;20032;-47
2023/06/24 05:23:31;;;;;;;5.05;2.90;;;21.20;99.90;;;;;;5075762;28;20030;-46
2023/06/24 05:25:57;;;;;;;3.88;2.63;;;21.20;99.90;;;;;;5076259;28;20452;-47
2023/06/24 05:28:22;;;;;;;3.70;2.30;;;21.20;99.90;;;;;;5062405;28;20175;-47
2023/06/24 05:30:48;;;;;;;4.50;2.60;;;21.10;99.90;;;;;;5074788;28;20122;-47
2023/06/24 05:33:14;;;;;;;4.40;2.88;;;21.20;99.90;;;;;;5050120;28;20033;-46
2023/06/24 05:35:42;;;;;;;4.85;2.30;;;21.30;99.90;;;;;;5052970;28;20033;-46
2023/06/24 05:38:08;;;;;;;3.78;2.63;;;21.30;99.90;;;;;;5070608;28;20078;-47
2023/06/24 05:40:34;;;;;;;7.25;2.75;;;21.20;99.90;;;;;;5075082;28;20438;-46
2023/06/24 05:43:00;;;;;;;5.18;2.40;;;21.20;99.90;;;;;;5025542;28;20541;-47
2023/06/24 05:45:26;;;;;;;2.78;1.83;;;21.40;99.90;;;;;;5067996;28;20086;-46
2023/06/24 05:47:52;;;;;;;3.53;2.45;;;21.20;99.90;;;;;;5071689;28;20086;-47
2023/06/24 05:50:18;;;;;;;4.50;2.65;;;21.30;99.90;;;;;;5076488;28;20028;-46
2023/06/24 05:52:43;;;;;;;3.63;2.70;;;21.40;99.90;;;;;;5075115;28;20039;-47
2023/06/24 05:55:09;;;;;;;6.47;2.55;;;21.60;99.90;;;;;;5070767;28;20539;-46
2023/06/24 05:57:35;;;;;;;7.18;2.38;;;21.80;99.90;;;;;;5074224;28;20108;-47
2023/06/24 06:00:03;;;;;;;4.10;2.55;;;21.90;99.90;;;;;;5077110;28;20502;-48
2023/06/24 06:02:29;;;;;;;3.30;2.28;;;22.40;99.90;;;;;;5075981;28;20025;-46
2023/06/24 06:04:54;;;;;;;3.70;2.38;;;22.90;99.90;;;;;;5074938;28;20020;-47
2023/06/24 06:07:20;;;;;;;4.25;2.30;;;22.90;99.90;;;;;;5077946;28;20032;-47
2023/06/24 06:09:46;;;;;;;5.90;2.72;;;23.00;99.90;;;;;;5070107;28;20040;-47
2023/06/24 06:12:12;;;;;;;5.78;3.58;;;23.00;99.90;;;;;;5076497;28;20033;-47
2023/06/24 06:14:38;;;;;;;3.30;2.05;;;;;;;;;;5026441;28;20123;-46
2023/06/24 06:17:04;;;;;;;3.50;2.00;;;;;;;;;;5071925;28;20028;-46
2023/06/24 06:19:30;;;;;;;3.22;2.25;;;;;;;;;;5072071;28;20364;-46
2023/06/24 06:21:56;;;;;;;5.13;2.47;;;;;;;;;;5067822;28;20038;-46
2023/06/24 06:24:22;;;;;;;4.03;2.60;;;;;;;;;;5076506;28;20162;-47
2023/06/24 06:26:48;;;;;;;3.72;2.50;;;;;;;;;;5068232;28;20436;-49
2023/06/24 06:29:14;;;;;;;3.70;2.50;;;24.00;99.90;;;;;;5065902;28;20040;-50
2023/06/24 06:31:39;;;;;;;8.95;3.40;;;24.20;99.90;;;;;;5051785;28;20052;-50
2023/06/24 06:34:05;;;;;;;4.85;2.92;;;;;;;;;;5074798;28;20070;-49
2023/06/24 06:36:31;;;;;;;6.53;3.20;;;24.30;99.90;;;;;;5015770;28;20036;-48
2023/06/24 06:38:57;;;;;;;6.00;3.10;;;24.30;99.90;;;;;;5045181;28;20033;-50
2023/06/24 06:41:25;;;;;;;4.63;3.00;;;24.30;99.90;;;;;;5068638;28;20045;-49
2023/06/24 06:43:52;;;;;;;4.20;2.42;;;24.30;99.90;;;;;;5078393;28;20029;-50
2023/06/24 06:46:18;;;;;;;4.85;2.60;;;24.00;99.90;;;;;;5073062;28;20028;-50
2023/06/24 06:48:44;;;;;;;5.93;2.67;;;24.10;99.90;;;;;;4996492;28;20394;-49
2023/06/24 06:51:09;;;;;;;4.20;2.60;;;24.10;99.90;;;;;;5012164;28;20052;-49
2023/06/24 06:53:35;;;;;;;7.85;2.90;;;;;;;;;;5040459;28;20488;-50
2023/06/24 06:56:01;;;;;;;4.22;2.80;;;;;;;;;;5041630;28;20025;-49
2023/06/24 06:58:27;;;;;;;3.95;2.78;;;;;;;;;;5015143;28;20064;-51
2023/06/24 07:00:53;;;;;;;3.70;2.75;;;;;;;;;;5043289;28;20029;-50
2023/06/24 07:03:20;;;;;;;3.83;2.78;;;;;;;;;;5048792;28;20045;-50
2023/06/24 07:05:46;;;;;;;4.30;3.00;;;24.80;99.90;;;;;;5044531;28;20032;-48
2023/06/24 07:08:12;;;;;;;4.35;2.92;;;25.20;99.90;;;;;;5043907;28;20497;-49
2023/06/24 07:10:38;;;;;;;4.50;2.95;;;;;;;;;;5031100;28;20052;-49
2023/06/24 07:13:04;;;;;;;7.38;2.85;;;25.50;99.90;;;;;;4999438;28;20037;-49
2023/06/24 07:15:29;;;;;;;15.70;3.40;;;25.70;99.90;;;;;;5050822;28;20037;-49
2023/06/24 07:17:55;;;;;;;6.88;2.80;;;25.60;99.90;;;;;;5031362;28;20033;-50
2023/06/24 07:20:22;;;;;;;3.92;2.78;;;25.30;99.90;;;;;;5067799;28;20036;-52
2023/06/24 07:22:47;;;;;;;3.53;2.40;;;25.30;99.90;;;;;;5069019;28;20054;-49
2023/06/24 07:25:14;;;;;;;5.40;2.83;;;25.10;99.90;;;;;;5073225;28;20064;-49
2023/06/24 07:27:39;;;;;;;4.25;2.20;;;25.10;99.90;;;;;;5070304;28;20051;-48
2023/06/24 07:30:06;;;;;;;3.72;2.75;;;24.80;99.90;;;;;;5049547;28;20028;-49
2023/06/24 07:32:31;;;;;;;5.95;3.75;;;25.00;99.90;;;;;;5027272;28;20039;-48
2023/06/24 07:34:57;;;;;;;4.20;2.60;;;25.20;99.90;;;;;;5074819;28;20016;-50
2023/06/24 07:37:24;;;;;;;5.88;3.00;;;25.10;99.90;;;;;;5077476;28;20031;-48
2023/06/24 07:39:50;;;;;;;4.40;2.42;;;25.20;99.90;;;;;;5074330;28;20028;-49
2023/06/24 07:42:19;;;;;;;6.07;2.60;;;25.20;99.90;;;;;;5078984;28;20017;-49
2023/06/24 07:44:48;;;;;;;4.53;2.50;;;25.30;99.90;;;;;;5081166;28;20028;-48
2023/06/24 07:47:16;;;;;;;4.22;2.80;;;25.50;99.90;;;;;;5072007;28;20480;-50
2023/06/24 07:49:42;;;;;;;3.85;2.70;;;;;;;;;;5078183;28;20027;-49
2023/06/24 07:52:08;;;;;;;5.68;2.65;;;;;;;;;;5078427;28;20103;-49
2023/06/24 07:54:35;;;;;;;4.03;2.67;;;26.20;99.90;;;;;;5080305;28;20043;-49
2023/06/24 07:57:01;;;;;;;4.20;2.67;;;25.90;99.90;;;;;;5078394;28;20590;-49
2023/06/24 07:59:27;;;;;;;6.03;2.90;;;26.00;99.90;;;;;;5062136;28;20040;-49
2023/06/24 08:01:53;;;;;;;6.78;2.83;;;25.80;99.90;;;;;;5083480;28;20459;-51
2023/06/24 08:04:18;;;;;;;5.07;2.53;;;26.00;99.90;;;;;;5081912;28;20460;-50
2023/06/24 08:06:45;;;;;;;3.92;2.97;;;;;;;;;;5075987;28;20431;-50
2023/06/24 08:09:11;;;;;;;3.05;2.05;;;26.60;99.90;;;;;;5070065;28;20244;-49
2023/06/24 08:11:36;;;;;;;3.22;2.50;;;26.60;99.90;;;;;;5053838;28;20045;-48
2023/06/24 08:14:03;;;;;;;4.63;3.08;;;26.50;99.90;;;;;;5086728;28;20096;-50
2023/06/24 08:16:29;;;;;;;4.97;2.38;;;;;;;;;;5073080;28;20032;-50
2023/06/24 08:18:55;;;;;;;3.97;2.63;;;26.60;99.90;;;;;;5052859;28;20089;-49
2023/06/24 08:21:20;;;;;;;4.57;2.70;;;26.50;99.90;;;;;;5044809;28;20033;-49
2023/06/24 08:23:46;;;;;;;6.55;2.90;;;26.30;99.90;;;;;;5080316;28;20024;-49
2023/06/24 08:26:12;;;;;;;4.90;2.40;;;26.30;99.90;;;;;;5075054;28;20523;-53
2023/06/24 08:28:38;;;;;;;3.80;2.75;;;26.00;99.90;;;;;;5072536;28;20028;-52
2023/06/24 08:31:04;;;;;;;3.83;2.20;;;26.00;99.90;;;;;;5059365;28;20048;-49
2023/06/24 08:33:29;;;;;;;5.40;2.50;;;25.80;99.90;;;;;;5043233;28;20034;-46
2023/06/24 08:35:55;;;;;;;3.58;2.42;;;25.80;99.90;;;;;;5080957;28;20031;-46
2023/06/24 08:38:21;;;;;;;3.53;2.25;;;25.70;99.90;;;;;;5070492;28;20025;-47
2023/06/24 08:40:49;;;;;;;3.90;2.63;;;25.40;99.90;;;;;;5069603;28;20048;-45
2023/06/24 08:43:14;;;;;;;5.43;2.00;;;25.60;99.90;;;;;;5082672;28;20031;-45
2023/06/24 08:45:40;;;;;;;3.20;2.42;;;25.70;99.90;;;;;;5075625;28;20021;-45
2023/06/24 08:48:06;;;;;;;4.43;2.58;;;25.80;99.90;;;;;;5032152;28;20047;-46
2023/06/24 08:50:38;;;;;;;6.55;2.70;;;25.60;99.90;;;;;;5068635;28;20077;-46
2023/06/24 08:53:09;;;;;;;;;;;26.00;99.90;;;;;;5073418;28;20487;-46
2023/06/24 08:55:42;;;;;;;4.72;2.22;;;26.10;99.90;;;;;;5073788;28;20425;-46
2023/06/24 08:58:09;;;;;;;4.15;2.42;;;;;;;;;;5072988;28;20021;-46
2023/06/24 09:00:43;;;;;;;4.38;2.45;;;26.80;99.90;;;;;;5072920;28;20061;-45
2023/06/24 09:03:09;;;;;;;4.28;2.35;;;;;;;;;;5072026;28;20047;-46
2023/06/24 09:05:35;;;;;;;5.47;2.30;;;;;;;;;;5043230;28;20039;-45
2023/06/24 09:08:01;;;;;;;3.78;2.50;;;27.50;99.90;;;;;;5076270;28;20025;-45
2023/06/24 09:10:35;;;;;;;3.25;2.10;;;27.40;99.90;;;;;;5026320;28;20394;-46
2023/06/24 09:13:02;;;;;;;2.70;2.35;;;26.90;99.90;;;;;;5080962;28;20032;-46
2023/06/24 09:15:32;;;;;;;3.05;2.30;;;26.30;99.90;;;;;;5076072;28;20131;-46
2023/06/24 09:18:00;;;;;;;3.10;2.17;;;26.20;99.90;;;;;;5071997;28;20426;-46
2023/06/24 09:20:26;;;;;;;3.42;2.20;;;25.80;99.90;;;;;;5077615;28;20082;-45
2023/06/24 09:22:58;;;;;;;2.70;1.95;;;25.70;99.90;;;;;;5069485;28;20060;-46
2023/06/24 09:25:24;;;;;;;3.35;2.50;;;25.30;99.90;;;;;;5055144;28;20086;-46
2023/06/24 09:27:52;;;;;;;3.25;2.33;;;25.40;99.90;;;;;;5068664;28;20030;-46
2023/06/24 09:30:20;;;;;;;2.92;2.00;;;25.40;99.90;;;;;;5071395;28;20085;-46
2023/06/24 09:32:47;;;;;;;3.85;2.15;;;25.40;99.90;;;;;;5076668;28;20064;-46
2023/06/24 09:35:13;;;;;;;2.58;1.83;;;25.40;99.90;;;;;;5073314;28;20049;-46
2023/06/24 09:37:39;;;;;;;3.22;2.20;;;25.20;99.90;;;;;;5060472;28;20035;-46
2023/06/24 09:40:08;;;;;;;3.10;2.05;;;25.20;99.90;;;;;;5071280;28;20044;-46
2023/06/24 09:42:34;;;;;;;3.28;1.90;;;25.20;99.90;;;;;;5002109;28;20064;-46
2023/06/24 09:45:05;;;;;;;4.43;2.05;;;25.20;99.90;;;;;;5041439;28;20067;-46
2023/06/24 09:47:31;;;;;;;2.60;1.77;;;25.30;99.90;;;;;;5090403;28;20024;-46
2023/06/24 09:49:57;;;;;;;3.53;2.28;;;25.60;99.90;;;;;;5067973;28;20035;-47
2023/06/24 09:52:23;;;;;;;2.97;2.40;;;25.60;99.90;;;;;;5049380;28;20071;-46
2023/06/24 09:54:54;;;;;;;3.08;2.00;;;25.60;99.90;;;;;;5075438;28;20082;-46
2023/06/24 09:57:26;;;;;;;2.83;2.08;;;25.70;99.90;;;;;;5052857;28;20041;-47
2023/06/24 09:59:52;;;;;;;5.80;2.17;;;25.90;99.90;;;;;;5083093;28;20028;-46
2023/06/24 10:02:19;;;;;;;2.75;1.85;;;25.80;99.90;;;;;;5044625;28;20100;-46
2023/06/24 10:04:47;;;;;;;3.45;1.70;;;25.60;99.90;;;;;;5074312;28;20096;-46
2023/06/24 10:07:14;;;;;;;2.55;1.60;;;25.60;99.90;;;;;;5080570;28;20094;-47
2023/06/24 10:09:40;;;;;;;4.10;1.55;;;25.60;99.90;;;;;;5068479;28;20086;-46
2023/06/24 10:12:06;;;;;;;2.63;1.52;;;25.60;99.90;;;;;;5076128;28;20070;-46
2023/06/24 10:14:32;;;;;;;2.88;1.90;;;25.50;99.90;;;;;;5071232;28;20036;-46
2023/06/24 10:17:04;;;;;;;2.05;1.48;;;25.40;99.90;;;;;;5069123;28;20036;-47
2023/06/24 10:19:36;;;;;;;2.03;1.70;;;25.50;99.90;;;;;;5061541;28;20396;-46
2023/06/24 10:22:02;;;;;;;2.65;2.08;;;25.20;99.90;;;;;;5079399;28;20050;-46
2023/06/24 10:24:37;;;;;;;2.30;1.50;;;25.30;99.90;;;;;;5034211;28;20503;-46
2023/06/24 10:27:13;;;;;;;2.45;1.42;;;25.50;99.90;;;;;;5071853;28;20024;-46
2023/06/24 10:29:39;;;;;;;2.25;1.85;;;25.50;99.90;;;;;;5043892;28;20044;-47
2023/06/24 10:32:09;;;;;;;2.78;1.55;;;25.60;99.90;;;;;;5075321;28;20408;-46
2023/06/24 10:34:37;;;;;;;2.70;1.77;;;25.70;99.90;;;;;;5075442;28;20101;-46
2023/06/24 10:37:20;;;;;;;3.20;2.15;;;25.30;99.90;;;;;;5069019;28;20029;-46
2023/06/24 10:39:59;;;;;;;3.92;2.60;;;24.80;99.90;;;;;;5062894;28;20488;-46
2023/06/24 10:42:42;;;;;;;6.88;2.55;;;24.60;99.90;;;;;;5039957;28;20060;-46
2023/06/24 10:45:14;;;;;;;4.18;2.85;;;24.20;99.90;;;;;;5043871;28;20163;-46
2023/06/24 10:47:42;;;;;;;11.07;2.50;;;24.20;99.90;;;;;;5066859;28;20360;-46
2023/06/24 10:50:16;;;;;;;5.13;3.15;;;24.20;99.90;;;;;;5033646;28;20047;-46
2023/06/24 10:52:47;;;;;;;3.50;2.60;;;24.40;99.90;;;;;;5040651;28;20056;-46
2023/06/24 10:55:14;;;;;;;;;;;24.80;99.90;;;;;;5073476;28;20036;-47
2023/06/24 10:57:40;;;;;;;2.90;2.20;;;25.20;99.90;;;;;;5064305;28;20359;-46
2023/06/24 11:00:06;;;;;;;3.60;2.35;;;25.60;99.90;;;;;;5067780;28;20052;-46
2023/06/24 11:02:32;;;;;;;3.55;2.40;;;25.90;99.90;;;;;;5009690;28;20068;-46
2023/06/24 11:04:59;;;;;;;3.63;2.70;;;;;;;;;;5063935;28;20098;-46
2023/06/24 11:07:26;;;;;;;5.32;2.42;;;;;;;;;;5062127;28;20028;-46
2023/06/24 11:09:53;;;;;;;3.78;2.55;;;26.60;99.90;;;;;;5064173;28;20376;-46
2023/06/24 11:12:23;;;;;;;3.15;2.50;;;26.60;99.90;;;;;;5066003;28;20457;-46
2023/06/24 11:14:49;;;;;;;3.40;2.22;;;26.50;99.90;;;;;;5064858;28;20032;-47
2023/06/24 11:17:14;;;;;;;4.68;2.50;;;26.50;99.90;;;;;;5062218;28;20028;-46
2023/06/24 11:19:40;;;;;;;8.18;2.25;;;26.40;99.90;;;;;;5038946;28;20033;-46
2023/06/24 11:22:07;;;;;;;4.32;2.35;;;26.00;99.90;;;;;;5033552;28;20045;-46
2023/06/24 11:24:34;;;;;;;6.28;2.60;;;25.60;99.90;;;;;;5054638;28;20024;-46
2023/06/24 11:27:00;;;;;;;5.28;2.75;;;25.60;99.90;;;;;;5062593;28;20100;-46
2023/06/24 11:29:30;;;;;;;3.05;2.05;;;25.90;99.90;;;;;;5035607;28;20116;-46
2023/06/24 11:31:56;;;;;;;2.67;1.83;;;26.10;99.90;;;;;;5058183;28;20044;-46
2023/06/24 11:34:21;;;;;;;3.45;2.28;;;26.00;99.90;;;;;;5065623;28;20443;-46
2023/06/24 11:36:48;;;;;;;3.92;2.38;;;25.80;99.90;;;;;;5009250;28;20041;-46
2023/06/24 11:39:25;;;;;;;3.47;2.47;;;25.70;99.90;;;;;;5052577;28;20037;-46
2023/06/24 11:41:52;;;;;;;7.32;3.20;;;25.40;99.90;;;;;;5039308;28;20492;-46
2023/06/24 11:44:23;;;;;;;4.85;2.78;;;25.50;99.90;;;;;;5066297;28;20044;-46
2023/06/24 11:46:49;;;;;;;3.85;2.90;;;25.60;99.90;;;;;;5070579;28;20025;-46
2023/06/24 11:49:15;;;;;;;2.53;2.03;;;25.30;99.90;;;;;;5069274;28;20034;-47
2023/06/24 11:51:49;;;;;;;3.40;2.60;;;25.10;99.90;;;;;;5069215;28;20098;-46
2023/06/24 11:54:20;;;;;;;4.28;2.80;;;24.90;99.90;;;;;;5048268;28;20033;-46
2023/06/24 11:56:52;;;;;;;3.63;2.30;;;25.00;99.90;;;;;;5068989;28;20064;-46
2023/06/24 11:59:25;;;;;;;3.38;2.63;;;25.40;99.90;;;;;;5046782;28;20041;-46
2023/06/24 12:01:59;;;;;;;2.70;2.05;;;25.80;99.90;;;;;;5066063;28;20047;-47
2023/06/24 12:04:29;;;;;;;10.05;6.45;;;25.60;99.90;;;;;;5068288;28;20036;-46
2023/06/24 12:06:55;;;;;;;3.22;2.53;;;25.70;99.90;;;;;;5068559;28;20103;-47
2023/06/24 12:09:21;;;;;;;3.78;2.60;;;25.90;99.90;;;;;;5006702;28;20125;-47
2023/06/24 12:11:47;;;;;;;4.07;2.45;;;26.30;99.90;;;;;;5065521;28;20033;-46
2023/06/24 12:14:12;;;;;;;4.15;3.15;;;26.60;99.90;;;;;;5039049;28;20040;-46
2023/06/24 12:16:39;;;;;;;4.07;2.53;;;26.60;99.90;;;;;;5032132;28;20055;-47
2023/06/24 12:19:07;;;;;;;3.33;2.60;;;26.40;99.90;;;;;;5065105;28;20033;-47
2023/06/24 12:21:33;;;;;;;3.90;2.17;;;;;;;;;;5038337;28;20495;-46
2023/06/24 12:23:59;;;;;;;5.13;2.83;;;27.50;99.90;;;;;;5067383;28;20383;-47
2023/06/24 12:26:24;;;;;;;2.63;2.08;;;27.50;99.90;;;;;;5069604;28;20032;-47
2023/06/24 12:28:50;;;;;;;4.05;2.08;;;27.40;99.90;;;;;;5034123;28;20041;-46
2023/06/24 12:31:16;;;;;;;5.20;2.42;;;26.80;99.90;;;;;;5037869;28;20060;-47
2023/06/24 12:33:42;;;;;;;3.00;2.10;;;26.80;99.90;;;;;;5036884;28;20064;-46
2023/06/24 12:36:07;;;;;;;3.72;1.92;;;26.70;99.90;;;;;;4989059;28;20064;-47
2023/06/24 12:38:33;;;;;;;2.88;1.98;;;26.30;99.90;;;;;;5041856;28;20393;-46
2023/06/24 12:40:59;;;;;;;3.10;1.85;;;25.90;99.90;;;;;;5062876;28;20056;-46
2023/06/24 12:43:24;;;;;;;2.80;1.65;;;25.50;99.90;;;;;;5064779;28;20037;-46
2023/06/24 12:45:51;;;;;;;7.22;1.85;;;25.40;99.90;;;;;;5066295;28;20461;-46
2023/06/24 12:48:16;;;;;;;2.42;1.65;;;25.10;99.90;;;;;;5062429;28;20053;-46
2023/06/24 12:50:42;;;;;;;2.53;1.70;;;25.30;99.90;;;;;;5067106;28;20064;-46
2023/06/24 12:53:10;;;;;;;1.90;1.30;;;25.20;99.90;;;;;;5064318;28;20170;-46
2023/06/24 12:55:36;;;;;;;3.13;1.50;;;25.40;99.90;;;;;;5057694;28;20063;-46
2023/06/24 12:58:02;;;;;;;2.50;1.55;;;25.30;99.90;;;;;;5061768;28;20118;-46